createdAt,value
2022-08-11T00:08:05.483Z,2.6
2022-08-11T00:13:05.448Z,2.7
2022-08-11T00:18:11.223Z,2.8
2022-08-11T00:23:05.735Z,2.7
2022-08-11T00:28:05.521Z,2.7
2022-08-11T00:33:05.542Z,2.7
2022-08-11T00:38:05.469Z,2.7
2022-08-11T00:43:05.488Z,2.7
2022-08-11T00:48:05.563Z,2.7
2022-08-11T00:53:05.477Z,2.6
2022-08-11T00:58:05.530Z,2.6
2022-08-11T01:03:05.534Z,2.7
2022-08-11T01:08:05.505Z,2.7
2022-08-11T01:13:09.540Z,3
2022-08-11T01:18:05.499Z,3
2022-08-11T01:23:12.492Z,3.2
2022-08-11T01:28:05.518Z,3.4
2022-08-11T01:33:05.495Z,3.2
2022-08-11T01:38:05.526Z,3.2
2022-08-11T01:43:05.531Z,3.4
2022-08-11T01:48:05.575Z,3.4
2022-08-11T01:53:06.723Z,3.4
2022-08-11T01:58:05.597Z,3.4
2022-08-11T02:03:06.558Z,3.4
2022-08-11T02:08:08.561Z,3.4
2022-08-11T02:13:09.603Z,3.5
2022-08-11T02:18:05.543Z,3.6
2022-08-11T02:23:05.535Z,3.7
2022-08-11T02:28:05.523Z,3.6
2022-08-11T02:33:05.511Z,3.5
2022-08-11T02:38:05.538Z,3.7
2022-08-11T02:43:05.496Z,3.7
2022-08-11T02:48:05.549Z,3.7
2022-08-11T02:53:05.587Z,3.7
2022-08-11T02:58:05.580Z,4
2022-08-11T03:03:05.503Z,4
2022-08-11T03:08:05.514Z,4
2022-08-11T03:13:08.513Z,4
2022-08-11T03:18:17.782Z,4
2022-08-11T03:23:21.774Z,3.9
2022-08-11T03:28:17.886Z,3.9
2022-08-11T03:33:17.787Z,3.9
2022-08-11T03:38:17.903Z,3.9
2022-08-11T03:43:17.823Z,4
2022-08-11T03:48:17.811Z,4
2022-08-11T03:53:17.793Z,4
2022-08-11T03:58:17.784Z,4.1
2022-08-11T04:03:17.841Z,4.1
2022-08-11T04:08:17.804Z,4.1
2022-08-11T04:13:17.775Z,4.3
2022-08-11T04:18:17.791Z,4.3
2022-08-11T04:24:13.466Z,4.3
2022-08-11T04:28:28.364Z,4.5
2022-08-11T04:33:17.819Z,4.6
2022-08-11T04:38:17.843Z,4.7
2022-08-11T04:43:17.841Z,4.7
2022-08-11T04:48:17.847Z,4.8
2022-08-11T04:53:17.859Z,4.9
2022-08-11T04:58:17.831Z,5
2022-08-11T05:03:17.842Z,5.1
2022-08-11T05:08:24.297Z,5.1
2022-08-11T05:13:17.829Z,5.2
2022-08-11T05:18:17.782Z,5.2
2022-08-11T05:23:17.839Z,5.4
2022-08-11T05:28:17.804Z,5.4
2022-08-11T05:33:17.853Z,5.3
2022-08-11T05:38:19.067Z,5.3
2022-08-11T05:43:17.834Z,5.2
2022-08-11T05:48:20.828Z,5.1
2022-08-11T05:53:17.855Z,4.9
2022-08-11T05:58:17.847Z,4.6
2022-08-11T06:03:17.838Z,4.6
2022-08-11T06:08:17.884Z,4.4
2022-08-11T06:13:17.867Z,4.3
2022-08-11T06:18:17.863Z,4
2022-08-11T06:23:17.828Z,3.9
2022-08-11T06:28:21.858Z,3.6
2022-08-11T06:33:17.863Z,3.4
2022-08-11T06:38:17.890Z,3.4
2022-08-11T06:43:17.899Z,3.3
2022-08-11T06:48:21.364Z,3.3
2022-08-11T06:53:18.874Z,3.1
2022-08-11T06:58:17.842Z,3.1
2022-08-11T07:03:17.869Z,3
2022-08-11T07:08:33.347Z,2.9
2022-08-11T07:13:39.310Z,2.9
2022-08-11T07:18:17.874Z,2.7
2022-08-11T07:23:17.952Z,2.6
2022-08-11T07:28:18.921Z,2.6
2022-08-11T07:34:04.995Z,2.5
2022-08-11T07:38:25.244Z,2.5
2022-08-11T07:43:17.997Z,2.6
2022-08-11T07:48:17.899Z,2.5
2022-08-11T07:53:17.894Z,2.5
2022-08-11T07:58:20.871Z,2.5
2022-08-11T08:03:17.860Z,2.2
2022-08-11T08:08:18.869Z,2.2
2022-08-11T08:13:17.892Z,2.2
2022-08-11T08:18:26.371Z,2.2
2022-08-11T08:23:17.937Z,2.2
2022-08-11T08:33:17.924Z,2.2
2022-08-11T08:38:17.976Z,2.2
2022-08-11T08:43:17.959Z,2.2
2022-08-11T08:48:17.959Z,2.1
2022-08-11T08:53:17.861Z,2
2022-08-11T08:58:17.913Z,2
2022-08-11T09:03:40.892Z,2
2022-08-11T09:08:17.905Z,2
2022-08-11T09:13:17.937Z,2.1
2022-08-11T09:18:17.909Z,2.1
2022-08-11T09:28:17.920Z,2.1
2022-08-11T09:33:17.917Z,2
2022-08-11T09:38:18.067Z,2
2022-08-11T09:43:17.946Z,2
2022-08-11T09:48:19.488Z,1.9
2022-08-11T09:53:35.523Z,1.7
2022-08-11T09:58:33.177Z,1.7
2022-08-11T10:03:18.044Z,1.7
2022-08-11T10:08:17.936Z,1.7
2022-08-11T10:13:43.677Z,1.7
2022-08-11T10:18:17.942Z,1.7
2022-08-11T10:23:17.929Z,1.6
2022-08-11T10:28:33.318Z,1.5
2022-08-11T10:33:36.530Z,1.4
2022-08-11T10:38:18.190Z,1.4
2022-08-11T10:44:02.297Z,1.3
2022-08-11T10:48:17.958Z,1.3
2022-08-11T10:53:23.344Z,1.3
2022-08-11T10:58:17.998Z,1.4
2022-08-11T11:03:24.104Z,1.4
2022-08-11T11:08:18.210Z,1.4
2022-08-11T11:13:18.024Z,1.5
2022-08-11T11:18:17.937Z,1.5
2022-08-11T11:23:18.045Z,1.4
2022-08-11T11:28:17.996Z,1.3
2022-08-11T11:33:17.973Z,1.3
2022-08-11T11:38:18.074Z,1.2
2022-08-11T11:43:17.991Z,1.2
2022-08-11T11:48:17.999Z,1.2
2022-08-11T11:53:17.968Z,1.2
2022-08-11T11:58:24.012Z,1.1
2022-08-11T12:03:18.086Z,1.1
2022-08-11T12:08:18.007Z,1.1
2022-08-11T12:13:18.021Z,1.1
2022-08-11T12:18:18.019Z,1.1
2022-08-11T12:23:18.021Z,1.1
2022-08-11T12:28:18.056Z,0.9
2022-08-11T12:33:24.238Z,0.8
2022-08-11T12:38:26.035Z,0.8
2022-08-11T12:43:24.275Z,0.8
2022-08-11T12:48:57.991Z,0.8
2022-08-11T12:53:18.022Z,0.9
2022-08-11T12:58:18.011Z,0.9
2022-08-11T13:03:17.996Z,1
2022-08-11T13:08:18.007Z,1
2022-08-11T13:13:53.104Z,1
2022-08-11T13:18:18.006Z,0.9
2022-08-11T13:23:18.455Z,0.9
2022-08-11T13:28:18.000Z,0.9
2022-08-11T13:33:18.002Z,0.9
2022-08-11T13:38:21.050Z,0.9
2022-08-11T13:43:18.015Z,0.9
2022-08-11T13:48:19.046Z,0.9
2022-08-11T13:53:18.017Z,0.9
2022-08-11T14:03:18.198Z,0.9
2022-08-11T14:08:32.513Z,1
2022-08-11T14:13:18.047Z,1
2022-08-11T14:18:18.100Z,1
2022-08-11T14:23:18.262Z,1
2022-08-11T14:28:30.849Z,1
2022-08-11T14:33:22.147Z,1.1
2022-08-11T14:38:18.088Z,1.1
2022-08-11T14:43:18.023Z,1.1
2022-08-11T14:48:18.081Z,1.1
2022-08-11T14:53:21.117Z,1.1
2022-08-11T14:58:18.024Z,1.1
2022-08-11T15:03:18.115Z,1.2
2022-08-11T15:08:22.368Z,1.1
2022-08-11T15:13:18.070Z,1.2
2022-08-11T15:18:18.054Z,1.2
2022-08-11T15:23:18.163Z,1.2
2022-08-11T15:28:18.166Z,1.2
2022-08-11T15:33:18.104Z,1.2
2022-08-11T15:38:18.153Z,1.3
2022-08-11T15:43:18.053Z,1.3
2022-08-11T15:48:18.089Z,1.3
2022-08-11T15:53:18.924Z,1.2
2022-08-11T15:58:18.042Z,1.3
2022-08-11T16:03:18.069Z,1.3
2022-08-11T16:08:27.942Z,1.3
2022-08-11T16:13:18.056Z,1.4
2022-08-11T16:18:18.099Z,1.4
2022-08-11T16:23:19.154Z,1.3
2022-08-11T16:28:18.091Z,1.3
2022-08-11T16:33:49.408Z,1.2
2022-08-11T16:38:18.083Z,1.1
2022-08-11T16:43:18.102Z,1.1
2022-08-11T16:48:33.363Z,1.1
2022-08-11T16:53:18.071Z,1.1
2022-08-11T16:58:18.077Z,1.1
2022-08-11T17:03:18.149Z,1.1
2022-08-11T17:08:20.091Z,1.1
2022-08-11T17:13:18.080Z,1.1
2022-08-11T17:18:18.090Z,1.1
2022-08-11T17:23:18.192Z,1.1
2022-08-11T17:28:18.119Z,1.1
2022-08-11T17:33:18.111Z,1.1
2022-08-11T17:38:18.212Z,1.3
2022-08-11T17:43:18.188Z,1.5
2022-08-11T17:48:18.100Z,1.5
2022-08-11T17:53:18.150Z,1.5
2022-08-11T17:58:18.112Z,1.5
2022-08-11T18:03:18.095Z,1.6
2022-08-11T18:08:18.124Z,1.6
2022-08-11T18:13:21.183Z,1.5
2022-08-11T18:18:21.144Z,1.4
2022-08-11T18:23:18.155Z,1.4
2022-08-11T18:28:19.095Z,1.5
2022-08-11T18:33:45.418Z,1.4
2022-08-11T18:38:18.160Z,1.4
2022-08-11T18:43:18.268Z,1.4
2022-08-11T18:48:20.214Z,1.5
2022-08-11T18:53:18.164Z,1.5
2022-08-11T18:58:18.131Z,3.2
2022-08-11T19:03:18.199Z,3.2
2022-08-11T19:08:18.143Z,3.2
2022-08-11T19:13:18.125Z,3.6
2022-08-11T19:18:18.151Z,3.2
2022-08-11T19:23:18.175Z,2.8
2022-08-11T19:28:18.119Z,2.5
2022-08-11T19:34:00.505Z,2.4
2022-08-11T19:38:18.253Z,2.4
2022-08-11T19:43:24.507Z,2.2
2022-08-11T19:48:31.515Z,2.2
2022-08-11T19:53:19.224Z,2.1
2022-08-11T19:58:18.151Z,2.1
2022-08-11T20:03:18.089Z,2.1
2022-08-11T20:08:21.238Z,2.1
2022-08-11T20:13:22.254Z,2.1
2022-08-11T20:18:18.145Z,2.2
2022-08-11T20:23:18.205Z,2.2
2022-08-11T20:28:18.170Z,2.3
2022-08-11T20:33:18.165Z,2.3
2022-08-11T20:38:18.239Z,2.3
2022-08-11T20:44:05.299Z,2.3
2022-08-11T20:48:23.404Z,2.3
2022-08-11T20:53:20.223Z,2.2
2022-08-11T20:58:26.598Z,2.2
2022-08-11T21:03:36.020Z,2.2
2022-08-11T21:08:25.368Z,2.2
2022-08-11T21:13:26.561Z,2.2
2022-08-11T21:18:27.629Z,2.2
2022-08-11T21:23:24.499Z,2.2
2022-08-11T21:28:18.205Z,2.2
2022-08-11T21:33:18.199Z,2.2
2022-08-11T21:38:18.231Z,2.2
2022-08-11T21:43:18.275Z,2.2
2022-08-11T21:48:21.255Z,2.1
2022-08-11T21:53:18.163Z,2.1
2022-08-11T21:58:18.172Z,2.1
2022-08-11T22:03:21.398Z,2.1
2022-08-11T22:08:18.410Z,2.1
2022-08-11T22:13:18.215Z,2.2
2022-08-11T22:18:18.329Z,2.2
2022-08-11T22:23:23.654Z,2.2
2022-08-11T22:28:18.218Z,2.2
2022-08-11T22:33:20.838Z,2.2
2022-08-11T22:38:18.229Z,2.2
2022-08-11T22:43:18.219Z,2.2
2022-08-11T22:48:18.290Z,2.2
2022-08-11T22:53:18.176Z,2.2
2022-08-11T22:58:19.598Z,2.2
2022-08-11T23:03:34.412Z,2.3
2022-08-11T23:08:18.245Z,2.3
2022-08-11T23:13:24.304Z,2.2
2022-08-11T23:18:18.236Z,2.2
2022-08-11T23:23:18.252Z,2.3
2022-08-11T23:28:18.201Z,2.3
2022-08-11T23:33:18.228Z,2.3
2022-08-11T23:38:18.261Z,2.3
2022-08-11T23:43:18.312Z,2.3
2022-08-11T23:48:18.258Z,2.3
2022-08-11T23:53:18.224Z,2.3
2022-08-11T23:58:18.285Z,2.4
